sensor_id;sensor_type;location;lat;lon;timestamp;temperature;humidity
19483;DHT22;9882;51.166;6.992;2022-09-27T04:02:12;9.60;99.90
19483;DHT22;9882;51.166;6.992;2022-09-27T04:05:04;9.80;99.90
19483;DHT22;9882;51.166;6.992;2022-09-27T04:07:34;9.70;99.90
19483;DHT22;9882;51.166;6.992;2022-09-27T04:10:05;9.60;99.90
19483;DHT22;9882;51.166;6.992;2022-09-27T04:12:35;9.80;99.90
19483;DHT22;9882;51.166;6.992;2022-09-27T04:15:04;9.70;99.90
19483;DHT22;9882;51.166;6.992;2022-09-27T04:20:43;9.70;99.90
19483;DHT22;9882;51.166;6.992;2022-09-27T04:23:14;9.70;99.90
19483;DHT22;9882;51.166;6.992;2022-09-27T04:25:49;9.70;99.90
19483;DHT22;9882;51.166;6.992;2022-09-27T04:28:41;9.70;99.90
19483;DHT22;9882;51.166;6.992;2022-09-27T04:31:10;9.80;99.90
19483;DHT22;9882;51.166;6.992;2022-09-27T04:33:53;9.60;99.90
19483;DHT22;9882;51.166;6.992;2022-09-27T04:36:27;9.60;99.90
19483;DHT22;9882;51.166;6.992;2022-09-27T04:39:16;9.60;99.90
19483;DHT22;9882;51.166;6.992;2022-09-27T04:41:46;9.70;99.90
19483;DHT22;9882;51.166;6.992;2022-09-27T04:44:17;9.60;99.90
19483;DHT22;9882;51.166;6.992;2022-09-27T04:46:49;9.60;99.90
19483;DHT22;9882;51.166;6.992;2022-09-27T04:49:18;9.80;99.90
19483;DHT22;9882;51.166;6.992;2022-09-27T04:51:49;9.80;99.90
19483;DHT22;9882;51.166;6.992;2022-09-27T04:54:18;9.60;99.90
19483;DHT22;9882;51.166;6.992;2022-09-27T04:56:57;9.60;99.90
19483;DHT22;9882;51.166;6.992;2022-09-27T04:59:26;9.80;99.90
19483;DHT22;9882;51.166;6.992;2022-09-27T05:01:55;9.70;99.90
19483;DHT22;9882;51.166;6.992;2022-09-27T05:04:50;9.60;99.90
19483;DHT22;9882;51.166;6.992;2022-09-27T05:07:22;9.60;99.90
19483;DHT22;9882;51.166;6.992;2022-09-27T05:10:25;9.70;99.90
19483;DHT22;9882;51.166;6.992;2022-09-27T05:12:55;9.60;99.90
19483;DHT22;9882;51.166;6.992;2022-09-27T05:15:29;9.80;99.90
19483;DHT22;9882;51.166;6.992;2022-09-27T05:18:16;9.80;99.90
19483;DHT22;9882;51.166;6.992;2022-09-27T05:21:04;9.70;99.90
19483;DHT22;9882;51.166;6.992;2022-09-27T05:23:42;9.70;99.90
19483;DHT22;9882;51.166;6.992;2022-09-27T05:26:12;9.70;99.90
19483;DHT22;9882;51.166;6.992;2022-09-27T05:28:41;9.50;99.90
19483;DHT22;9882;51.166;6.992;2022-09-27T05:31:15;9.70;99.90
19483;DHT22;9882;51.166;6.992;2022-09-27T05:33:49;9.60;99.90
19483;DHT22;9882;51.166;6.992;2022-09-27T05:36:41;9.60;99.90
19483;DHT22;9882;51.166;6.992;2022-09-27T05:39:12;9.60;99.90
19483;DHT22;9882;51.166;6.992;2022-09-27T05:41:43;9.50;99.90
19483;DHT22;9882;51.166;6.992;2022-09-27T05:44:14;9.30;99.90
19483;DHT22;9882;51.166;6.992;2022-09-27T05:46:53;9.40;99.90
19483;DHT22;9882;51.166;6.992;2022-09-27T05:49:22;9.50;99.90
19483;DHT22;9882;51.166;6.992;2022-09-27T05:51:53;9.40;99.90
19483;DHT22;9882;51.166;6.992;2022-09-27T05:54:26;9.60;99.90
19483;DHT22;9882;51.166;6.992;2022-09-27T05:57:01;9.50;99.90
19483;DHT22;9882;51.166;6.992;2022-09-27T05:59:44;9.40;99.90
19483;DHT22;9882;51.166;6.992;2022-09-27T06:02:21;9.50;99.90
19483;DHT22;9882;51.166;6.992;2022-09-27T06:05:24;9.60;99.90
19483;DHT22;9882;51.166;6.992;2022-09-27T06:12:01;9.50;99.90
19483;DHT22;9882;51.166;6.992;2022-09-27T06:14:45;9.50;99.90
19483;DHT22;9882;51.166;6.992;2022-09-27T06:18:11;9.50;99.90
19483;DHT22;9882;51.166;6.992;2022-09-27T06:20:44;9.50;99.90
19483;DHT22;9882;51.166;6.992;2022-09-27T06:23:38;9.60;99.90
19483;DHT22;9882;51.166;6.992;2022-09-27T06:26:19;9.60;99.90
19483;DHT22;9882;51.166;6.992;2022-09-27T06:29:10;9.70;99.90
19483;DHT22;9882;51.166;6.992;2022-09-27T06:32:05;9.80;99.90
19483;DHT22;9882;51.166;6.992;2022-09-27T06:34:42;9.80;99.90
19483;DHT22;9882;51.166;6.992;2022-09-27T06:37:11;9.70;99.90
19483;DHT22;9882;51.166;6.992;2022-09-27T06:39:42;9.80;99.90
19483;DHT22;9882;51.166;6.992;2022-09-27T06:42:30;9.80;99.90
19483;DHT22;9882;51.166;6.992;2022-09-27T06:45:18;9.70;99.90
19483;DHT22;9882;51.166;6.992;2022-09-27T06:48:42;9.70;99.90
19483;DHT22;9882;51.166;6.992;2022-09-27T06:51:40;9.60;99.90
19483;DHT22;9882;51.166;6.992;2022-09-27T06:54:31;9.70;99.90
19483;DHT22;9882;51.166;6.992;2022-09-27T06:57:04;9.60;99.90
19483;DHT22;9882;51.166;6.992;2022-09-27T06:59:33;9.60;99.90
19483;DHT22;9882;51.166;6.992;2022-09-27T07:02:39;9.70;99.90
19483;DHT22;9882;51.166;6.992;2022-09-27T07:05:53;9.70;99.90
19483;DHT22;9882;51.166;6.992;2022-09-27T07:08:52;9.50;99.90
19483;DHT22;9882;51.166;6.992;2022-09-27T07:11:22;9.40;99.90
19483;DHT22;9882;51.166;6.992;2022-09-27T07:13:54;9.50;99.90
19483;DHT22;9882;51.166;6.992;2022-09-27T07:16:26;9.50;99.90
19483;DHT22;9882;51.166;6.992;2022-09-27T07:18:57;9.50;99.90
19483;DHT22;9882;51.166;6.992;2022-09-27T07:21:26;9.40;99.90
19483;DHT22;9882;51.166;6.992;2022-09-27T07:23:55;9.50;99.90
19483;DHT22;9882;51.166;6.992;2022-09-27T07:26:24;9.60;99.90
19483;DHT22;9882;51.166;6.992;2022-09-27T07:28:54;9.70;99.90
19483;DHT22;9882;51.166;6.992;2022-09-27T07:31:25;9.80;99.90
19483;DHT22;9882;51.166;6.992;2022-09-27T07:33:57;9.60;99.90
19483;DHT22;9882;51.166;6.992;2022-09-27T07:36:26;9.60;99.90
19483;DHT22;9882;51.166;6.992;2022-09-27T07:38:58;9.70;99.90
19483;DHT22;9882;51.166;6.992;2022-09-27T07:41:29;9.50;99.90
19483;DHT22;9882;51.166;6.992;2022-09-27T07:44:03;9.50;99.90
19483;DHT22;9882;51.166;6.992;2022-09-27T07:46:42;9.40;99.90
19483;DHT22;9882;51.166;6.992;2022-09-27T07:49:38;9.40;99.90
19483;DHT22;9882;51.166;6.992;2022-09-27T07:52:19;9.60;99.90
19483;DHT22;9882;51.166;6.992;2022-09-27T07:55:13;9.90;99.90
19483;DHT22;9882;51.166;6.992;2022-09-27T07:58:02;9.50;99.90
19483;DHT22;9882;51.166;6.992;2022-09-27T08:00:31;9.60;99.90
19483;DHT22;9882;51.166;6.992;2022-09-27T08:03:03;9.60;99.90
19483;DHT22;9882;51.166;6.992;2022-09-27T08:05:35;9.30;99.90
19483;DHT22;9882;51.166;6.992;2022-09-27T08:08:04;9.60;99.90
19483;DHT22;9882;51.166;6.992;2022-09-27T08:10:34;9.50;99.90
19483;DHT22;9882;51.166;6.992;2022-09-27T08:13:04;9.50;99.90
19483;DHT22;9882;51.166;6.992;2022-09-27T08:15:33;9.70;99.90
19483;DHT22;9882;51.166;6.992;2022-09-27T08:18:06;9.70;99.90
19483;DHT22;9882;51.166;6.992;2022-09-27T08:21:12;9.80;99.90
19483;DHT22;9882;51.166;6.992;2022-09-27T08:23:50;9.70;99.90
19483;DHT22;9882;51.166;6.992;2022-09-27T08:26:23;9.60;99.90
19483;DHT22;9882;51.166;6.992;2022-09-27T08:28:56;9.90;99.90
19483;DHT22;9882;51.166;6.992;2022-09-27T08:31:30;9.80;99.90
19483;DHT22;9882;51.166;6.992;2022-09-27T08:33:59;10.00;99.90
19483;DHT22;9882;51.166;6.992;2022-09-27T08:36:31;10.00;99.90
19483;DHT22;9882;51.166;6.992;2022-09-27T08:39:04;10.00;99.90
19483;DHT22;9882;51.166;6.992;2022-09-27T08:41:46;9.90;99.90
19483;DHT22;9882;51.166;6.992;2022-09-27T08:44:23;9.70;99.90
19483;DHT22;9882;51.166;6.992;2022-09-27T08:47:08;9.60;99.90
19483;DHT22;9882;51.166;6.992;2022-09-27T08:49:41;9.80;99.90
19483;DHT22;9882;51.166;6.992;2022-09-27T08:52:18;9.60;99.90
19483;DHT22;9882;51.166;6.992;2022-09-27T08:54:49;9.60;99.90
19483;DHT22;9882;51.166;6.992;2022-09-27T08:57:20;9.80;99.90
19483;DHT22;9882;51.166;6.992;2022-09-27T08:59:58;9.90;99.90
19483;DHT22;9882;51.166;6.992;2022-09-27T09:02:40;9.90;99.90
19483;DHT22;9882;51.166;6.992;2022-09-27T09:05:15;9.80;99.90
19483;DHT22;9882;51.166;6.992;2022-09-27T09:08:04;9.80;99.90
19483;DHT22;9882;51.166;6.992;2022-09-27T09:10:47;9.80;99.90
19483;DHT22;9882;51.166;6.992;2022-09-27T09:13:47;9.80;99.90
19483;DHT22;9882;51.166;6.992;2022-09-27T09:16:28;9.80;99.90
19483;DHT22;9882;51.166;6.992;2022-09-27T09:19:12;9.60;99.90
19483;DHT22;9882;51.166;6.992;2022-09-27T09:22:20;9.80;99.90
19483;DHT22;9882;51.166;6.992;2022-09-27T09:25:11;9.80;99.90
19483;DHT22;9882;51.166;6.992;2022-09-27T09:27:53;9.80;99.90
19483;DHT22;9882;51.166;6.992;2022-09-27T09:30:34;9.80;99.90
19483;DHT22;9882;51.166;6.992;2022-09-27T09:33:22;9.90;99.90
19483;DHT22;9882;51.166;6.992;2022-09-27T09:35:54;10.00;99.90
19483;DHT22;9882;51.166;6.992;2022-09-27T09:38:34;10.10;99.90
19483;DHT22;9882;51.166;6.992;2022-09-27T09:41:11;10.20;99.90
19483;DHT22;9882;51.166;6.992;2022-09-27T09:43:47;10.10;99.90
19483;DHT22;9882;51.166;6.992;2022-09-27T09:46:21;10.20;99.90
19483;DHT22;9882;51.166;6.992;2022-09-27T09:48:56;10.30;99.90
19483;DHT22;9882;51.166;6.992;2022-09-27T09:51:33;10.30;99.90
19483;DHT22;9882;51.166;6.992;2022-09-27T09:54:12;10.40;99.90
19483;DHT22;9882;51.166;6.992;2022-09-27T09:56:46;10.40;99.90
19483;DHT22;9882;51.166;6.992;2022-09-27T09:59:24;10.50;99.90
19483;DHT22;9882;51.166;6.992;2022-09-27T10:02:13;10.60;99.90
19483;DHT22;9882;51.166;6.992;2022-09-27T10:05:00;10.70;99.90
19483;DHT22;9882;51.166;6.992;2022-09-27T10:07:36;10.60;99.90
19483;DHT22;9882;51.166;6.992;2022-09-27T10:10:09;10.60;99.90
19483;DHT22;9882;51.166;6.992;2022-09-27T10:12:43;10.50;99.90
19483;DHT22;9882;51.166;6.992;2022-09-27T10:19:19;10.60;99.90
19483;DHT22;9882;51.166;6.992;2022-09-27T10:21:53;10.70;99.90
19483;DHT22;9882;51.166;6.992;2022-09-27T10:24:26;10.80;99.90
19483;DHT22;9882;51.166;6.992;2022-09-27T10:27:07;10.80;99.90
19483;DHT22;9882;51.166;6.992;2022-09-27T10:29:39;11.00;99.90
19483;DHT22;9882;51.166;6.992;2022-09-27T10:32:21;10.70;99.90
19483;DHT22;9882;51.166;6.992;2022-09-27T10:35:31;10.70;99.90
19483;DHT22;9882;51.166;6.992;2022-09-27T10:38:24;10.90;99.90
19483;DHT22;9882;51.166;6.992;2022-09-27T10:41:16;10.80;99.90
19483;DHT22;9882;51.166;6.992;2022-09-27T10:43:49;10.90;99.90
19483;DHT22;9882;51.166;6.992;2022-09-27T10:46:34;10.80;99.90
19483;DHT22;9882;51.166;6.992;2022-09-27T10:49:21;10.70;99.90
19483;DHT22;9882;51.166;6.992;2022-09-27T10:51:55;10.80;99.90
19483;DHT22;9882;51.166;6.992;2022-09-27T10:54:27;10.90;99.90
19483;DHT22;9882;51.166;6.992;2022-09-27T10:56:58;10.80;99.90
19483;DHT22;9882;51.166;6.992;2022-09-27T10:59:33;10.70;99.90
19483;DHT22;9882;51.166;6.992;2022-09-27T11:02:13;10.80;99.90
19483;DHT22;9882;51.166;6.992;2022-09-27T11:05:07;10.70;99.90
19483;DHT22;9882;51.166;6.992;2022-09-27T11:07:48;10.80;99.90
19483;DHT22;9882;51.166;6.992;2022-09-27T11:10:24;11.00;99.90
19483;DHT22;9882;51.166;6.992;2022-09-27T11:13:06;10.90;99.90
19483;DHT22;9882;51.166;6.992;2022-09-27T11:15:46;10.60;99.90
19483;DHT22;9882;51.166;6.992;2022-09-27T11:18:29;10.70;99.90
19483;DHT22;9882;51.166;6.992;2022-09-27T11:21:04;10.80;99.90
19483;DHT22;9882;51.166;6.992;2022-09-27T11:24:01;10.70;99.90
19483;DHT22;9882;51.166;6.992;2022-09-27T11:26:47;10.80;99.90
19483;DHT22;9882;51.166;6.992;2022-09-27T11:29:26;10.80;99.90
19483;DHT22;9882;51.166;6.992;2022-09-27T11:32:26;10.80;99.90
19483;DHT22;9882;51.166;6.992;2022-09-27T11:37:58;11.10;99.90
19483;DHT22;9882;51.166;6.992;2022-09-27T11:40:34;11.20;99.90
19483;DHT22;9882;51.166;6.992;2022-09-27T11:43:29;11.30;99.90
19483;DHT22;9882;51.166;6.992;2022-09-27T11:46:14;11.10;99.90
19483;DHT22;9882;51.166;6.992;2022-09-27T11:49:04;11.30;99.90
19483;DHT22;9882;51.166;6.992;2022-09-27T11:51:52;11.10;99.90
19483;DHT22;9882;51.166;6.992;2022-09-27T11:54:51;11.20;99.90
19483;DHT22;9882;51.166;6.992;2022-09-27T11:57:26;11.30;99.90
19483;DHT22;9882;51.166;6.992;2022-09-27T12:00:08;11.40;99.90
19483;DHT22;9882;51.166;6.992;2022-09-27T12:03:02;11.00;99.90
19483;DHT22;9882;51.166;6.992;2022-09-27T12:05:40;11.00;99.90
19483;DHT22;9882;51.166;6.992;2022-09-27T12:08:31;11.20;99.90
19483;DHT22;9882;51.166;6.992;2022-09-27T12:11:08;11.20;99.90
19483;DHT22;9882;51.166;6.992;2022-09-27T12:13:44;11.20;99.90
19483;DHT22;9882;51.166;6.992;2022-09-27T12:16:15;11.30;99.90
19483;DHT22;9882;51.166;6.992;2022-09-27T12:18:49;11.40;99.90
19483;DHT22;9882;51.166;6.992;2022-09-27T12:21:30;11.30;99.90
19483;DHT22;9882;51.166;6.992;2022-09-27T12:24:02;11.40;99.90
19483;DHT22;9882;51.166;6.992;2022-09-27T12:26:40;11.40;99.90
19483;DHT22;9882;51.166;6.992;2022-09-27T12:29:20;11.40;99.90
19483;DHT22;9882;51.166;6.992;2022-09-27T12:31:56;11.30;99.90
19483;DHT22;9882;51.166;6.992;2022-09-27T12:34:31;11.20;99.90
19483;DHT22;9882;51.166;6.992;2022-09-27T12:37:07;11.20;99.90
19483;DHT22;9882;51.166;6.992;2022-09-27T12:39:49;11.20;99.90
19483;DHT22;9882;51.166;6.992;2022-09-27T12:42:24;11.10;99.90
19483;DHT22;9882;51.166;6.992;2022-09-27T12:44:59;11.10;99.90
19483;DHT22;9882;51.166;6.992;2022-09-27T12:47:49;11.10;99.90
19483;DHT22;9882;51.166;6.992;2022-09-27T12:50:29;11.20;99.90
19483;DHT22;9882;51.166;6.992;2022-09-27T12:53:02;11.20;99.90
19483;DHT22;9882;51.166;6.992;2022-09-27T12:55:46;11.10;99.90
19483;DHT22;9882;51.166;6.992;2022-09-27T13:01:23;11.20;99.90
19483;DHT22;9882;51.166;6.992;2022-09-27T13:04:18;11.10;99.90
19483;DHT22;9882;51.166;6.992;2022-09-27T13:07:12;10.90;99.90
19483;DHT22;9882;51.166;6.992;2022-09-27T13:13:18;11.00;99.90
19483;DHT22;9882;51.166;6.992;2022-09-27T13:15:48;11.00;99.90
19483;DHT22;9882;51.166;6.992;2022-09-27T13:18:54;11.10;99.90
19483;DHT22;9882;51.166;6.992;2022-09-27T13:21:53;10.90;99.90
19483;DHT22;9882;51.166;6.992;2022-09-27T13:24:58;10.70;99.90
19483;DHT22;9882;51.166;6.992;2022-09-27T13:27:50;10.60;99.90
19483;DHT22;9882;51.166;6.992;2022-09-27T13:30:44;10.90;99.90
19483;DHT22;9882;51.166;6.992;2022-09-27T13:36:29;11.10;99.90
19483;DHT22;9882;51.166;6.992;2022-09-27T13:39:20;11.20;99.90
19483;DHT22;9882;51.166;6.992;2022-09-27T13:42:30;11.20;99.90
19483;DHT22;9882;51.166;6.992;2022-09-27T13:45:19;11.20;99.90
19483;DHT22;9882;51.166;6.992;2022-09-27T13:47:53;11.00;99.90
19483;DHT22;9882;51.166;6.992;2022-09-27T13:50:36;11.10;99.90
19483;DHT22;9882;51.166;6.992;2022-09-27T13:53:19;11.10;99.90
19483;DHT22;9882;51.166;6.992;2022-09-27T13:55:51;11.00;99.90
19483;DHT22;9882;51.166;6.992;2022-09-27T13:58:48;11.10;99.90
19483;DHT22;9882;51.166;6.992;2022-09-27T14:01:42;11.10;99.90
19483;DHT22;9882;51.166;6.992;2022-09-27T14:04:21;11.10;99.90
19483;DHT22;9882;51.166;6.992;2022-09-27T14:06:56;11.00;99.90
19483;DHT22;9882;51.166;6.992;2022-09-27T14:09:30;11.30;99.90
19483;DHT22;9882;51.166;6.992;2022-09-27T14:12:12;11.30;99.90
19483;DHT22;9882;51.166;6.992;2022-09-27T14:14:47;11.50;99.90
19483;DHT22;9882;51.166;6.992;2022-09-27T14:17:18;11.20;99.90
19483;DHT22;9882;51.166;6.992;2022-09-27T14:19:48;11.40;99.90
19483;DHT22;9882;51.166;6.992;2022-09-27T14:22:20;11.50;99.90
19483;DHT22;9882;51.166;6.992;2022-09-27T14:25:01;11.60;99.90
19483;DHT22;9882;51.166;6.992;2022-09-27T14:27:39;11.60;99.90
19483;DHT22;9882;51.166;6.992;2022-09-27T14:30:23;11.60;99.90
19483;DHT22;9882;51.166;6.992;2022-09-27T14:33:03;11.80;99.90
19483;DHT22;9882;51.166;6.992;2022-09-27T14:35:47;11.80;99.90
19483;DHT22;9882;51.166;6.992;2022-09-27T14:38:36;11.70;99.90
19483;DHT22;9882;51.166;6.992;2022-09-27T14:41:19;11.90;99.90
19483;DHT22;9882;51.166;6.992;2022-09-27T14:43:48;12.00;99.90
19483;DHT22;9882;51.166;6.992;2022-09-27T14:46:27;12.10;99.90
19483;DHT22;9882;51.166;6.992;2022-09-27T14:48:56;11.90;99.90
19483;DHT22;9882;51.166;6.992;2022-09-27T14:51:29;12.00;99.90
19483;DHT22;9882;51.166;6.992;2022-09-27T14:53:59;11.80;99.90
19483;DHT22;9882;51.166;6.992;2022-09-27T14:56:32;11.70;99.90
19483;DHT22;9882;51.166;6.992;2022-09-27T14:59:09;11.40;99.90
19483;DHT22;9882;51.166;6.992;2022-09-27T15:01:47;11.70;99.90
19483;DHT22;9882;51.166;6.992;2022-09-27T15:04:21;11.50;99.90
19483;DHT22;9882;51.166;6.992;2022-09-27T15:06:54;11.80;99.90
19483;DHT22;9882;51.166;6.992;2022-09-27T15:09:23;11.80;99.90
19483;DHT22;9882;51.166;6.992;2022-09-27T15:11:56;11.80;99.90
19483;DHT22;9882;51.166;6.992;2022-09-27T15:14:27;11.60;99.90
19483;DHT22;9882;51.166;6.992;2022-09-27T15:17:02;11.50;99.90
19483;DHT22;9882;51.166;6.992;2022-09-27T15:19:32;11.80;99.90
19483;DHT22;9882;51.166;6.992;2022-09-27T15:22:30;11.30;99.90
19483;DHT22;9882;51.166;6.992;2022-09-27T15:25:05;11.40;99.90
19483;DHT22;9882;51.166;6.992;2022-09-27T15:27:35;11.50;99.90
19483;DHT22;9882;51.166;6.992;2022-09-27T15:30:14;11.40;99.90
19483;DHT22;9882;51.166;6.992;2022-09-27T15:32:48;11.30;99.90
19483;DHT22;9882;51.166;6.992;2022-09-27T15:35:21;11.10;99.90
19483;DHT22;9882;51.166;6.992;2022-09-27T15:37:52;11.00;99.90
19483;DHT22;9882;51.166;6.992;2022-09-27T15:41:07;11.30;99.90
19483;DHT22;9882;51.166;6.992;2022-09-27T15:43:39;11.30;99.90
19483;DHT22;9882;51.166;6.992;2022-09-27T15:46:32;11.40;99.90
19483;DHT22;9882;51.166;6.992;2022-09-27T15:49:26;11.10;99.90
19483;DHT22;9882;51.166;6.992;2022-09-27T15:51:57;11.10;99.90
19483;DHT22;9882;51.166;6.992;2022-09-27T15:54:30;11.30;99.90
19483;DHT22;9882;51.166;6.992;2022-09-27T15:57:05;11.10;99.90
19483;DHT22;9882;51.166;6.992;2022-09-27T15:59:34;11.40;99.90
19483;DHT22;9882;51.166;6.992;2022-09-27T16:02:16;11.10;99.90
19483;DHT22;9882;51.166;6.992;2022-09-27T16:04:45;11.30;99.90
19483;DHT22;9882;51.166;6.992;2022-09-27T16:07:14;11.50;99.90
19483;DHT22;9882;51.166;6.992;2022-09-27T16:09:44;11.10;99.90
19483;DHT22;9882;51.166;6.992;2022-09-27T16:12:15;11.30;99.90
19483;DHT22;9882;51.166;6.992;2022-09-27T16:14:44;11.30;99.90
19483;DHT22;9882;51.166;6.992;2022-09-27T16:17:15;11.50;99.90
19483;DHT22;9882;51.166;6.992;2022-09-27T16:19:43;11.40;99.90
19483;DHT22;9882;51.166;6.992;2022-09-27T16:22:12;11.20;99.90
19483;DHT22;9882;51.166;6.992;2022-09-27T16:24:41;11.40;99.90
19483;DHT22;9882;51.166;6.992;2022-09-27T16:27:11;11.60;99.90
19483;DHT22;9882;51.166;6.992;2022-09-27T16:29:42;11.80;99.90
19483;DHT22;9882;51.166;6.992;2022-09-27T16:32:11;11.50;99.90
19483;DHT22;9882;51.166;6.992;2022-09-27T16:34:43;11.70;99.90
19483;DHT22;9882;51.166;6.992;2022-09-27T16:37:11;11.80;99.90
19483;DHT22;9882;51.166;6.992;2022-09-27T16:39:41;11.80;99.90
19483;DHT22;9882;51.166;6.992;2022-09-27T16:42:10;11.90;99.90
19483;DHT22;9882;51.166;6.992;2022-09-27T16:44:40;11.80;99.90
19483;DHT22;9882;51.166;6.992;2022-09-27T16:47:09;11.60;99.90
19483;DHT22;9882;51.166;6.992;2022-09-27T16:49:37;11.80;99.90
19483;DHT22;9882;51.166;6.992;2022-09-27T16:52:23;11.90;99.90
19483;DHT22;9882;51.166;6.992;2022-09-27T16:54:52;11.80;99.90
19483;DHT22;9882;51.166;6.992;2022-09-27T16:57:21;11.80;99.90
19483;DHT22;9882;51.166;6.992;2022-09-27T16:59:50;11.90;99.90
19483;DHT22;9882;51.166;6.992;2022-09-27T17:02:18;11.80;99.90
19483;DHT22;9882;51.166;6.992;2022-09-27T17:04:47;12.00;99.90
19483;DHT22;9882;51.166;6.992;2022-09-27T17:07:15;12.10;99.90
19483;DHT22;9882;51.166;6.992;2022-09-27T17:09:44;11.90;99.90
19483;DHT22;9882;51.166;6.992;2022-09-27T17:12:13;11.90;99.90
19483;DHT22;9882;51.166;6.992;2022-09-27T17:14:43;11.80;99.90
19483;DHT22;9882;51.166;6.992;2022-09-27T17:17:12;11.80;99.90
19483;DHT22;9882;51.166;6.992;2022-09-27T17:19:40;11.90;99.90
19483;DHT22;9882;51.166;6.992;2022-09-27T17:22:11;11.60;99.90
19483;DHT22;9882;51.166;6.992;2022-09-27T17:24:39;11.70;99.90
19483;DHT22;9882;51.166;6.992;2022-09-27T17:27:08;11.80;99.90
19483;DHT22;9882;51.166;6.992;2022-09-27T17:29:36;11.90;99.90
19483;DHT22;9882;51.166;6.992;2022-09-27T17:32:06;11.90;99.90
19483;DHT22;9882;51.166;6.992;2022-09-27T17:34:35;12.00;99.90
19483;DHT22;9882;51.166;6.992;2022-09-27T17:37:09;11.80;99.90
19483;DHT22;9882;51.166;6.992;2022-09-27T17:39:38;11.80;99.90
19483;DHT22;9882;51.166;6.992;2022-09-27T17:42:08;11.80;99.90
19483;DHT22;9882;51.166;6.992;2022-09-27T17:44:37;11.80;99.90
19483;DHT22;9882;51.166;6.992;2022-09-27T17:47:07;11.80;99.90
19483;DHT22;9882;51.166;6.992;2022-09-27T17:49:52;11.70;99.90
19483;DHT22;9882;51.166;6.992;2022-09-27T17:52:47;11.70;99.90
19483;DHT22;9882;51.166;6.992;2022-09-27T17:55:16;11.70;99.90
19483;DHT22;9882;51.166;6.992;2022-09-27T17:57:45;11.70;99.90
19483;DHT22;9882;51.166;6.992;2022-09-27T18:00:15;11.60;99.90
19483;DHT22;9882;51.166;6.992;2022-09-27T18:02:45;11.60;99.90
19483;DHT22;9882;51.166;6.992;2022-09-27T18:05:14;11.60;99.90
19483;DHT22;9882;51.166;6.992;2022-09-27T18:07:44;11.50;99.90
19483;DHT22;9882;51.166;6.992;2022-09-27T18:10:13;11.60;99.90
19483;DHT22;9882;51.166;6.992;2022-09-27T18:12:42;11.40;99.90
19483;DHT22;9882;51.166;6.992;2022-09-27T18:15:11;11.60;99.90
19483;DHT22;9882;51.166;6.992;2022-09-27T18:17:48;11.40;99.90
19483;DHT22;9882;51.166;6.992;2022-09-27T18:20:19;11.50;99.90
19483;DHT22;9882;51.166;6.992;2022-09-27T18:22:48;11.40;99.90
19483;DHT22;9882;51.166;6.992;2022-09-27T18:25:16;11.40;99.90
19483;DHT22;9882;51.166;6.992;2022-09-27T18:27:47;11.30;99.90
19483;DHT22;9882;51.166;6.992;2022-09-27T18:30:16;11.20;99.90
19483;DHT22;9882;51.166;6.992;2022-09-27T18:32:46;11.40;99.90
19483;DHT22;9882;51.166;6.992;2022-09-27T18:35:16;11.40;99.90
19483;DHT22;9882;51.166;6.992;2022-09-27T18:37:46;11.30;99.90
19483;DHT22;9882;51.166;6.992;2022-09-27T18:40:15;11.40;99.90
19483;DHT22;9882;51.166;6.992;2022-09-27T18:42:50;11.30;99.90
19483;DHT22;9882;51.166;6.992;2022-09-27T18:45:19;11.10;99.90
19483;DHT22;9882;51.166;6.992;2022-09-27T18:47:48;11.20;99.90
19483;DHT22;9882;51.166;6.992;2022-09-27T18:50:17;11.20;99.90
19483;DHT22;9882;51.166;6.992;2022-09-27T18:52:45;11.40;99.90
19483;DHT22;9882;51.166;6.992;2022-09-27T18:55:14;11.10;99.90
19483;DHT22;9882;51.166;6.992;2022-09-27T18:57:42;11.20;99.90
19483;DHT22;9882;51.166;6.992;2022-09-27T19:00:13;11.20;99.90
19483;DHT22;9882;51.166;6.992;2022-09-27T19:02:48;11.20;99.90
19483;DHT22;9882;51.166;6.992;2022-09-27T19:05:17;11.30;99.90
19483;DHT22;9882;51.166;6.992;2022-09-27T19:07:46;11.20;99.90
19483;DHT22;9882;51.166;6.992;2022-09-27T19:10:14;11.20;99.90
19483;DHT22;9882;51.166;6.992;2022-09-27T19:12:43;11.10;99.90
19483;DHT22;9882;51.166;6.992;2022-09-27T19:15:12;11.20;99.90
19483;DHT22;9882;51.166;6.992;2022-09-27T19:17:41;11.10;99.90
19483;DHT22;9882;51.166;6.992;2022-09-27T19:20:12;10.80;99.90
19483;DHT22;9882;51.166;6.992;2022-09-27T19:22:41;10.90;99.90
19483;DHT22;9882;51.166;6.992;2022-09-27T19:25:09;10.80;99.90
19483;DHT22;9882;51.166;6.992;2022-09-27T19:27:38;10.90;99.90
19483;DHT22;9882;51.166;6.992;2022-09-27T19:30:10;11.10;99.90
19483;DHT22;9882;51.166;6.992;2022-09-27T19:32:39;11.10;99.90
19483;DHT22;9882;51.166;6.992;2022-09-27T19:35:07;11.20;99.90
19483;DHT22;9882;51.166;6.992;2022-09-27T19:37:39;11.10;99.90
19483;DHT22;9882;51.166;6.992;2022-09-27T19:40:08;11.20;99.90
19483;DHT22;9882;51.166;6.992;2022-09-27T19:42:36;11.00;99.90
19483;DHT22;9882;51.166;6.992;2022-09-27T19:45:06;11.10;99.90
19483;DHT22;9882;51.166;6.992;2022-09-27T19:47:37;11.10;99.90
19483;DHT22;9882;51.166;6.992;2022-09-27T19:50:07;10.90;99.90
19483;DHT22;9882;51.166;6.992;2022-09-27T19:52:35;10.70;99.90
19483;DHT22;9882;51.166;6.992;2022-09-27T19:55:07;10.80;99.90
19483;DHT22;9882;51.166;6.992;2022-09-27T19:57:36;10.90;99.90
19483;DHT22;9882;51.166;6.992;2022-09-27T20:00:05;11.00;99.90
19483;DHT22;9882;51.166;6.992;2022-09-27T20:02:34;10.80;99.90
19483;DHT22;9882;51.166;6.992;2022-09-27T20:05:03;10.90;99.90
19483;DHT22;9882;51.166;6.992;2022-09-27T20:07:32;10.90;99.90
19483;DHT22;9882;51.166;6.992;2022-09-27T20:10:01;10.70;99.90
19483;DHT22;9882;51.166;6.992;2022-09-27T20:12:30;10.80;99.90
19483;DHT22;9882;51.166;6.992;2022-09-27T20:14:59;10.80;99.90
19483;DHT22;9882;51.166;6.992;2022-09-27T20:17:30;10.90;99.90
19483;DHT22;9882;51.166;6.992;2022-09-27T20:20:00;10.90;99.90
19483;DHT22;9882;51.166;6.992;2022-09-27T20:22:28;10.80;99.90
19483;DHT22;9882;51.166;6.992;2022-09-27T20:24:57;10.90;99.90
19483;DHT22;9882;51.166;6.992;2022-09-27T20:27:26;10.90;99.90
19483;DHT22;9882;51.166;6.992;2022-09-27T20:29:56;10.90;99.90
19483;DHT22;9882;51.166;6.992;2022-09-27T20:32:25;10.90;99.90
19483;DHT22;9882;51.166;6.992;2022-09-27T20:34:54;10.90;99.90
19483;DHT22;9882;51.166;6.992;2022-09-27T20:37:23;10.90;99.90
19483;DHT22;9882;51.166;6.992;2022-09-27T20:39:52;10.90;99.90
19483;DHT22;9882;51.166;6.992;2022-09-27T20:42:20;10.90;99.90
19483;DHT22;9882;51.166;6.992;2022-09-27T20:44:49;10.80;99.90
19483;DHT22;9882;51.166;6.992;2022-09-27T20:47:21;10.70;99.90
19483;DHT22;9882;51.166;6.992;2022-09-27T20:49:50;10.80;99.90
19483;DHT22;9882;51.166;6.992;2022-09-27T20:52:19;10.20;99.90
19483;DHT22;9882;51.166;6.992;2022-09-27T20:54:47;10.30;99.90
19483;DHT22;9882;51.166;6.992;2022-09-27T20:57:16;10.10;99.90
19483;DHT22;9882;51.166;6.992;2022-09-27T20:59:51;9.90;99.90
19483;DHT22;9882;51.166;6.992;2022-09-27T21:02:21;9.60;99.90
19483;DHT22;9882;51.166;6.992;2022-09-27T21:04:50;9.70;99.90
19483;DHT22;9882;51.166;6.992;2022-09-27T21:07:18;9.80;99.90
19483;DHT22;9882;51.166;6.992;2022-09-27T21:09:47;9.80;99.90
19483;DHT22;9882;51.166;6.992;2022-09-27T21:12:16;9.90;99.90
19483;DHT22;9882;51.166;6.992;2022-09-27T21:14:44;10.20;99.90
19483;DHT22;9882;51.166;6.992;2022-09-27T21:17:13;10.10;99.90